GMMC/CAS METAR and TAF weather

Enter ICAO airport designator
Station Type Date Time Source
GMMC METAR 2020/02/21 14:00 UTC NOAA

GMMC 211400Z 02010KT CAVOK 21/12 Q1021


Station Type Date Time Source
GMMC Decoded METAR 2020/02/21 14:00 UTC NOAA

Casablanca, Morocco (GMMC) 33-34N 007-40W 62M
Feb 21, 2020 - 09:00 AM EST / 2020.02.21 1400 UTC
Wind: from the NNE (020 degrees) at 12 MPH (10 KT):0
Visibility: greater than 7 mile(s):0
Temperature: 69 F (21 C)
Dew Point: 53 F (12 C)
Relative Humidity: 56%
Pressure (altimeter): 30.15 in. Hg (1021 hPa)
ob: GMMC 211400Z 02010KT CAVOK 21/12 Q1021
cycle: 14

Station Type Date Time Source
GMMC TAF 2016/05/22 17:00 UTC NOAA

FTMC31 GMMC 221700 RRA TAF LPPT 221700Z 2218/2324 34013KT CAVOK
BECMG 2221/2224 34007KT
BECMG 2310/2312 VRB03KT

Example: see airport list